Time;durP1;ratioP1;P1;durP2;ratioP2;P2;SDS_P1;SDS_P2;PMS_P1;PMS_P2;Temp;Humidity;BMP_temperature;BMP_pressure;BME280_temperature;BME280_humidity;BME280_pressure;Samples;Min_cycle;Max_cycle;Signal;HPM_P1;HPM_P2
2020/12/05 00:02:16;;;;;;;7.63;3.43;;;4.10;84.10;;;;;;5036101;28;20500;-86
2020/12/05 00:04:42;;;;;;;7.63;3.42;;;4.10;84.40;;;;;;5036671;28;20053;-86
2020/12/05 00:07:11;;;;;;;8.63;3.63;;;4.10;85.10;;;;;;5038051;28;20021;-86
2020/12/05 00:09:38;;;;;;;6.70;3.50;;;4.00;85.40;;;;;;5055230;28;20040;-86
2020/12/05 00:12:06;;;;;;;6.77;3.40;;;4.10;84.70;;;;;;5037634;28;20021;-87
2020/12/05 00:14:33;;;;;;;5.72;3.53;;;4.20;84.70;;;;;;5037690;28;20074;-87
2020/12/05 00:16:58;;;;;;;7.50;3.73;;;4.20;84.60;;;;;;5056141;28;20060;-86
2020/12/05 00:19:35;;;;;;;8.87;4.03;;;4.10;84.80;;;;;;5037427;28;20032;-86
2020/12/05 00:22:00;;;;;;;8.50;3.70;;;4.10;85.10;;;;;;5038106;28;20028;-86
2020/12/05 00:24:26;;;;;;;6.53;3.83;;;4.10;85.10;;;;;;5038012;28;20385;-87
2020/12/05 00:26:53;;;;;;;6.33;3.60;;;4.10;85.30;;;;;;5055770;28;20033;-87
2020/12/05 00:29:20;;;;;;;7.83;3.30;;;4.20;85.30;;;;;;5037381;28;20036;-87
2020/12/05 00:31:50;;;;;;;9.13;4.17;;;4.20;84.80;;;;;;5037837;28;20405;-87
2020/12/05 00:34:17;;;;;;;7.47;3.77;;;4.10;85.10;;;;;;5036604;28;20055;-87
2020/12/05 00:36:43;;;;;;;7.43;3.87;;;4.10;85.20;;;;;;5034794;28;20067;-87
2020/12/05 00:39:12;;;;;;;9.17;4.20;;;4.10;85.20;;;;;;5034043;28;20098;-88
2020/12/05 00:41:38;;;;;;;6.95;3.80;;;4.10;85.30;;;;;;5034632;28;20028;-87
2020/12/05 00:44:03;;;;;;;7.83;3.83;;;4.20;85.00;;;;;;5034562;28;20083;-88
2020/12/05 00:46:29;;;;;;;9.57;3.67;;;4.10;84.80;;;;;;5034691;28;20029;-87
2020/12/05 00:48:55;;;;;;;7.20;3.50;;;4.10;84.90;;;;;;5052209;28;20059;-88
2020/12/05 00:51:20;;;;;;;7.60;3.80;;;4.10;85.60;;;;;;5057524;28;20029;-88
2020/12/05 00:53:46;;;;;;;8.40;3.70;;;4.10;85.40;;;;;;5056979;28;20025;-87
2020/12/05 00:56:18;;;;;;;10.50;5.00;;;4.00;85.30;;;;;;5052629;28;20032;-87
2020/12/05 00:58:44;;;;;;;10.40;4.73;;;4.10;85.80;;;;;;5035740;28;20548;-87
2020/12/05 01:01:11;;;;;;;8.30;4.13;;;4.10;85.20;;;;;;5034219;28;20079;-87
2020/12/05 01:03:36;;;;;;;8.23;4.07;;;4.10;84.80;;;;;;5034269;28;20056;-87
2020/12/05 01:06:02;;;;;;;8.73;4.40;;;4.20;84.60;;;;;;5034363;28;20465;-87
2020/12/05 01:08:28;;;;;;;8.70;4.17;;;4.10;84.50;;;;;;5034290;28;20032;-87
2020/12/05 01:10:54;;;;;;;7.40;4.37;;;4.10;85.10;;;;;;5033749;28;20389;-87
2020/12/05 01:13:19;;;;;;;8.67;4.53;;;4.10;85.30;;;;;;5034387;28;20382;-88
2020/12/05 01:15:45;;;;;;;8.33;4.53;;;4.10;85.30;;;;;;5051970;28;20025;-87
2020/12/05 01:18:23;;;;;;;7.83;4.03;;;4.10;85.30;;;;;;5033957;28;20033;-87
2020/12/05 01:21:39;;;;;;;9.33;4.33;;;4.00;85.40;;;;;;5033578;28;20025;-86
2020/12/05 01:24:34;;;;;;;10.60;4.10;;;4.00;85.20;;;;;;4974045;28;20035;-87
2020/12/05 01:27:33;;;;;;;9.57;3.70;;;4.00;84.90;;;;;;4935362;29;20046;-87
2020/12/05 01:30:05;;;;;;;7.75;3.78;;;4.00;85.00;;;;;;4990021;28;20535;-87
2020/12/05 01:32:30;;;;;;;8.67;4.03;;;4.00;85.10;;;;;;4974138;28;20494;-87
2020/12/05 01:35:18;;;;;;;8.63;4.70;;;4.00;85.10;;;;;;5027504;28;20037;-87
2020/12/05 01:37:52;;;;;;;9.30;4.97;;;4.00;85.50;;;;;;5034190;28;20032;-87
2020/12/05 01:40:33;;;;;;;7.93;4.23;;;3.80;85.60;;;;;;5033442;28;20083;-88
2020/12/05 01:43:24;;;;;;;7.90;4.47;;;3.80;85.80;;;;;;5051706;28;20056;-87
2020/12/05 01:46:32;;;;;;;8.27;4.70;;;3.70;86.30;;;;;;5033949;28;20371;-87
2020/12/05 01:52:24;;;;;;;7.80;4.27;;;3.70;86.70;;;;;;4985460;28;20766;-88
2020/12/05 01:54:50;;;;;;;7.63;4.80;;;3.70;86.40;;;;;;4973821;28;20046;-87
2020/12/05 01:57:19;;;;;;;7.10;4.67;;;3.70;86.00;;;;;;4974329;28;20053;-88
2020/12/05 02:00:24;;;;;;;8.93;5.07;;;3.80;85.80;;;;;;4989767;28;20436;-88
2020/12/05 02:03:08;;;;;;;10.40;5.27;;;3.70;85.70;;;;;;4989507;28;20058;-87
2020/12/05 02:06:22;;;;;;;;;;;;;;;;;;;;;
2020/12/05 02:09:14;;;;;;;9.03;4.90;;;3.70;86.20;;;;;;4994188;28;20514;-91
2020/12/05 02:12:27;;;;;;;9.60;4.93;;;3.60;86.30;;;;;;4994226;28;20033;-87
2020/12/05 02:15:28;;;;;;;10.00;5.30;;;3.70;86.30;;;;;;5055307;28;20028;-86
2020/12/05 02:18:25;;;;;;;8.70;4.97;;;3.70;86.40;;;;;;5034035;28;20045;-86
2020/12/05 02:24:15;;;;;;;8.93;5.33;;;3.80;86.10;;;;;;5055746;28;20024;-86
2020/12/05 02:26:44;;;;;;;9.80;5.67;;;3.90;85.80;;;;;;5037446;28;20029;-87
2020/12/05 02:29:13;;;;;;;12.45;5.30;;;3.90;86.10;;;;;;5036585;28;20111;-87
2020/12/05 02:31:57;;;;;;;9.43;5.77;;;3.90;86.20;;;;;;5037158;28;20036;-87
2020/12/05 02:34:58;;;;;;;10.23;5.83;;;3.80;86.40;;;;;;5037019;28;20744;-87
2020/12/05 02:37:47;;;;;;;9.67;6.03;;;3.90;86.90;;;;;;5027054;28;20063;-87
2020/12/05 02:40:27;;;;;;;9.43;5.53;;;3.90;87.20;;;;;;5028847;28;20033;-87
2020/12/05 02:43:27;;;;;;;9.47;5.33;;;3.90;87.00;;;;;;5054791;28;20029;-88
2020/12/05 02:46:06;;;;;;;9.00;5.53;;;3.90;86.80;;;;;;4975561;28;20038;-88
2020/12/05 02:48:32;;;;;;;;;;;3.90;86.80;;;;;;4977536;28;20526;-88
2020/12/05 02:51:19;;;;;;;7.80;5.00;;;3.90;87.00;;;;;;4976744;28;19941;-86
2020/12/05 02:54:24;;;;;;;8.67;5.83;;;3.90;86.70;;;;;;4976909;28;20023;-86
2020/12/05 02:57:00;;;;;;;9.13;5.43;;;3.90;87.00;;;;;;4977077;28;20035;-86
2020/12/05 02:59:29;;;;;;;9.10;5.20;;;4.00;87.00;;;;;;4977483;28;20085;-87
2020/12/05 03:02:10;;;;;;;10.10;5.37;;;4.00;86.80;;;;;;4982491;28;20037;-87
2020/12/05 03:04:54;;;;;;;9.80;5.37;;;4.10;86.90;;;;;;4993633;28;20030;-86
2020/12/05 03:07:49;;;;;;;8.50;5.30;;;4.00;86.70;;;;;;4977308;28;20023;-88
2020/12/05 03:10:27;;;;;;;8.90;5.23;;;4.10;86.60;;;;;;4971831;28;20044;-87
2020/12/05 03:12:55;;;;;;;7.83;5.23;;;4.10;86.70;;;;;;4976312;28;20030;-88
2020/12/05 03:15:27;;;;;;;9.40;5.53;;;4.10;86.60;;;;;;4984108;28;20320;-88
2020/12/05 03:18:10;;;;;;;8.37;5.13;;;4.10;86.90;;;;;;5054183;28;20032;-87
2020/12/05 03:20:35;;;;;;;8.53;5.20;;;4.00;87.10;;;;;;5035544;28;20124;-87
2020/12/05 03:23:23;;;;;;;8.20;5.03;;;4.00;87.10;;;;;;5036416;28;20124;-88
2020/12/05 03:25:48;;;;;;;8.37;5.03;;;4.10;87.50;;;;;;5053843;28;20024;-87
2020/12/05 03:28:14;;;;;;;9.20;5.30;;;4.10;87.70;;;;;;5053941;28;20075;-88
2020/12/05 03:30:49;;;;;;;10.13;5.13;;;4.10;87.30;;;;;;5053531;28;20044;-87
2020/12/05 03:33:19;;;;;;;8.87;5.03;;;4.10;87.30;;;;;;5054211;28;20021;-88
2020/12/05 03:36:07;;;;;;;9.43;4.83;;;4.10;87.30;;;;;;5035593;28;20025;-88
2020/12/05 03:38:33;;;;;;;7.47;5.07;;;4.00;87.40;;;;;;4977819;28;20480;-88
2020/12/05 03:41:04;;;;;;;8.10;5.10;;;4.00;88.00;;;;;;5053541;28;20112;-87
2020/12/05 03:43:50;;;;;;;10.37;5.30;;;4.00;87.50;;;;;;5035940;28;20024;-87
2020/12/05 03:46:18;;;;;;;8.63;5.67;;;4.10;87.60;;;;;;5035933;28;20056;-88
2020/12/05 03:48:44;;;;;;;9.30;5.70;;;4.00;88.10;;;;;;5035734;28;20021;-87
2020/12/05 03:51:10;;;;;;;11.30;6.00;;;4.00;88.00;;;;;;5035124;28;20481;-87
2020/12/05 03:53:35;;;;;;;10.27;5.77;;;4.10;88.00;;;;;;5035722;28;20504;-87
2020/12/05 03:56:01;;;;;;;11.37;6.30;;;4.10;88.30;;;;;;5035455;28;20029;-87
2020/12/05 03:58:30;;;;;;;9.17;5.90;;;4.10;88.10;;;;;;5052558;28;20017;-87
2020/12/05 04:00:55;;;;;;;13.20;7.90;;;4.10;88.20;;;;;;5034355;28;20032;-87
2020/12/05 04:03:27;;;;;;;10.10;5.50;;;4.10;88.20;;;;;;5035789;28;20035;-87
2020/12/05 04:06:02;;;;;;;10.20;6.23;;;4.00;88.40;;;;;;5053177;28;20034;-87
2020/12/05 04:08:28;;;;;;;10.20;5.77;;;4.10;88.30;;;;;;5035831;28;20540;-88
2020/12/05 04:11:10;;;;;;;9.80;5.93;;;4.10;88.30;;;;;;5057404;28;20378;-87
2020/12/05 04:13:36;;;;;;;12.70;5.97;;;4.20;88.40;;;;;;5038474;28;20082;-87
2020/12/05 04:16:14;;;;;;;10.70;6.40;;;4.20;88.20;;;;;;5035528;28;20036;-87
2020/12/05 04:18:46;;;;;;;10.10;6.47;;;4.10;88.40;;;;;;5035460;28;20025;-88
2020/12/05 04:21:12;;;;;;;10.17;6.00;;;4.20;88.60;;;;;;5036268;28;20063;-86
2020/12/05 04:23:37;;;;;;;10.27;6.30;;;4.10;88.40;;;;;;5036478;28;20473;-87
2020/12/05 04:26:03;;;;;;;10.00;6.07;;;4.20;88.80;;;;;;5036492;28;20039;-86
2020/12/05 04:28:29;;;;;;;10.30;6.40;;;4.20;88.80;;;;;;5036491;28;20072;-88
2020/12/05 04:30:54;;;;;;;9.73;6.60;;;4.30;88.50;;;;;;5035883;28;20176;-86
2020/12/05 04:33:20;;;;;;;12.73;6.97;;;4.30;88.10;;;;;;5053886;28;20100;-86
2020/12/05 04:35:45;;;;;;;13.43;7.50;;;4.30;88.50;;;;;;5036286;28;20118;-87
2020/12/05 04:38:11;;;;;;;11.67;7.03;;;4.30;88.70;;;;;;5036540;28;20142;-87
2020/12/05 04:40:37;;;;;;;12.40;7.90;;;4.30;88.90;;;;;;5035963;28;20102;-86
2020/12/05 04:43:03;;;;;;;12.33;7.37;;;4.20;88.80;;;;;;5036545;28;20033;-86
2020/12/05 04:45:29;;;;;;;11.43;7.60;;;4.20;89.10;;;;;;5036641;28;20056;-86
2020/12/05 04:47:56;;;;;;;14.87;8.37;;;4.20;89.00;;;;;;5036680;28;20029;-86
2020/12/05 04:50:25;;;;;;;13.63;7.73;;;4.20;89.40;;;;;;5036380;28;20029;-86
2020/12/05 04:52:52;;;;;;;14.23;8.30;;;4.20;89.40;;;;;;5038144;28;20021;-87
2020/12/05 04:55:23;;;;;;;14.97;8.27;;;4.20;89.30;;;;;;5038268;28;20021;-87
2020/12/05 04:57:59;;;;;;;13.00;7.87;;;4.20;89.50;;;;;;5036296;28;20032;-87
2020/12/05 05:00:28;;;;;;;14.30;8.33;;;4.20;89.50;;;;;;5034975;28;20027;-86
2020/12/05 05:02:58;;;;;;;15.68;7.97;;;4.20;89.50;;;;;;5035014;28;20024;-86
2020/12/05 05:05:24;;;;;;;12.57;7.77;;;4.20;89.80;;;;;;5034499;28;20505;-87
2020/12/05 05:07:52;;;;;;;14.80;8.80;;;4.30;89.70;;;;;;5052786;28;20089;-86
2020/12/05 05:10:30;;;;;;;16.33;9.07;;;4.40;89.60;;;;;;5033919;28;20494;-86
2020/12/05 05:13:16;;;;;;;13.63;8.50;;;4.60;88.90;;;;;;5034531;28;20107;-87
2020/12/05 05:15:42;;;;;;;14.80;9.10;;;4.70;88.70;;;;;;5052369;28;20029;-86
2020/12/05 05:18:08;;;;;;;15.63;9.37;;;4.70;88.40;;;;;;5034496;28;20390;-86
2020/12/05 05:20:43;;;;;;;15.60;8.70;;;4.70;88.40;;;;;;5051550;28;20060;-87
2020/12/05 05:23:11;;;;;;;14.97;9.90;;;4.80;88.30;;;;;;5034529;28;20075;-86
2020/12/05 05:25:48;;;;;;;15.67;9.63;;;4.70;88.40;;;;;;5034023;28;20555;-87
2020/12/05 05:28:29;;;;;;;16.50;8.97;;;4.70;88.50;;;;;;5034185;28;20079;-87
2020/12/05 05:31:10;;;;;;;12.80;8.77;;;4.70;88.40;;;;;;5059634;22;20551;-80
2020/12/05 05:33:47;;;;;;;14.07;8.77;;;4.70;88.30;;;;;;5038050;28;20294;-80
2020/12/05 05:36:19;;;;;;;14.33;9.27;;;4.60;88.70;;;;;;5056300;28;20029;-79
2020/12/05 05:38:55;;;;;;;15.30;9.40;;;4.60;88.80;;;;;;5056174;28;20072;-79
2020/12/05 05:41:21;;;;;;;18.70;9.73;;;4.60;88.90;;;;;;5039823;28;20037;-79
2020/12/05 05:44:09;;;;;;;17.63;9.87;;;4.50;89.00;;;;;;5042566;28;20047;-80
2020/12/05 05:46:43;;;;;;;16.40;10.23;;;4.50;89.50;;;;;;5042259;28;20032;-80
2020/12/05 05:49:11;;;;;;;16.23;10.07;;;4.50;89.70;;;;;;5041650;28;20124;-80
2020/12/05 05:51:37;;;;;;;19.97;10.73;;;4.50;89.70;;;;;;5060293;28;20017;-79
2020/12/05 05:54:15;;;;;;;18.30;9.80;;;4.40;89.70;;;;;;5041541;28;20496;-80
2020/12/05 05:56:59;;;;;;;17.67;10.50;;;4.40;89.80;;;;;;5060089;28;20491;-80
2020/12/05 05:59:39;;;;;;;16.40;10.33;;;4.30;89.70;;;;;;5041589;28;20543;-80
2020/12/05 06:02:07;;;;;;;16.90;10.23;;;4.40;89.80;;;;;;5059120;28;20474;-80
2020/12/05 06:04:35;;;;;;;18.67;10.47;;;4.40;89.50;;;;;;5059286;28;20066;-80
2020/12/05 06:07:02;;;;;;;18.97;11.13;;;4.50;89.30;;;;;;5059294;28;20021;-80
2020/12/05 06:09:29;;;;;;;15.33;9.80;;;4.50;89.30;;;;;;5059055;28;20028;-80
2020/12/05 06:11:57;;;;;;;17.60;9.93;;;4.50;88.60;;;;;;5059281;28;20079;-80
2020/12/05 06:14:23;;;;;;;16.97;10.27;;;4.50;88.70;;;;;;5060076;28;20084;-80
2020/12/05 06:16:54;;;;;;;17.37;10.27;;;4.50;88.70;;;;;;5041899;28;20029;-80
2020/12/05 06:19:21;;;;;;;15.90;9.47;;;4.40;88.90;;;;;;5058800;28;20071;-80
2020/12/05 06:21:55;;;;;;;18.10;11.00;;;4.40;89.10;;;;;;5058978;28;20039;-80
2020/12/05 06:24:33;;;;;;;19.23;11.37;;;4.40;89.30;;;;;;5041186;28;20021;-80
2020/12/05 06:27:02;;;;;;;17.07;10.43;;;4.40;89.70;;;;;;5041114;28;20021;-80
2020/12/05 06:29:30;;;;;;;19.03;11.33;;;4.40;89.90;;;;;;5058747;28;20153;-80
2020/12/05 06:31:55;;;;;;;21.47;13.00;;;4.40;90.00;;;;;;5040927;28;20389;-80
2020/12/05 06:34:41;;;;;;;20.87;12.37;;;4.40;90.10;;;;;;5058648;28;20025;-80
2020/12/05 06:37:10;;;;;;;21.20;12.80;;;4.50;90.20;;;;;;5059187;28;20044;-80
2020/12/05 06:39:36;;;;;;;24.00;13.48;;;4.40;90.10;;;;;;5039904;28;20025;-78
2020/12/05 06:42:02;;;;;;;27.17;13.40;;;4.50;90.30;;;;;;5058778;28;20027;-80
2020/12/05 06:44:30;;;;;;;24.60;14.33;;;4.50;90.10;;;;;;5040793;28;20021;-80
2020/12/05 06:46:57;;;;;;;27.08;13.77;;;4.50;90.30;;;;;;5041107;28;20028;-80
2020/12/05 06:49:36;;;;;;;26.03;14.50;;;4.40;90.50;;;;;;5040458;28;20032;-79
2020/12/05 06:52:23;;;;;;;26.42;14.70;;;4.40;90.30;;;;;;5040338;28;20043;-80
2020/12/05 06:54:52;;;;;;;27.43;14.80;;;4.50;90.30;;;;;;5058840;28;20025;-80
2020/12/05 06:57:25;;;;;;;26.08;15.15;;;4.60;90.30;;;;;;5058628;28;20021;-79
2020/12/05 06:59:51;;;;;;;27.03;15.57;;;4.50;90.50;;;;;;5040038;28;20401;-80
2020/12/05 07:02:31;;;;;;;25.97;15.57;;;4.50;90.60;;;;;;5040725;28;20048;-80
2020/12/05 07:05:27;;;;;;;27.23;15.77;;;4.50;90.60;;;;;;5040370;28;20029;-80
2020/12/05 07:07:55;;;;;;;33.63;16.97;;;4.60;90.60;;;;;;5049046;28;20056;-80
2020/12/05 07:10:42;;;;;;;29.50;16.37;;;4.60;90.60;;;;;;5058043;28;20025;-79
2020/12/05 07:13:22;;;;;;;29.97;15.70;;;4.60;90.70;;;;;;5040658;28;20071;-80
2020/12/05 07:15:48;;;;;;;31.13;15.87;;;4.50;90.90;;;;;;5058969;28;20033;-80
2020/12/05 07:18:23;;;;;;;30.90;16.07;;;4.50;90.60;;;;;;5040697;28;20075;-80
2020/12/05 07:20:49;;;;;;;29.43;16.60;;;4.50;90.70;;;;;;5057350;28;20037;-80
2020/12/05 07:23:16;;;;;;;30.60;16.53;;;4.50;90.70;;;;;;5040334;28;20105;-80
2020/12/05 07:25:42;;;;;;;30.60;17.13;;;4.60;90.90;;;;;;5040003;28;20036;-80
2020/12/05 07:28:08;;;;;;;30.57;17.37;;;4.60;91.20;;;;;;5040037;28;20032;-80
2020/12/05 07:30:34;;;;;;;30.63;17.40;;;4.60;91.00;;;;;;5039430;28;20037;-80
2020/12/05 07:32:59;;;;;;;28.47;16.47;;;4.70;90.90;;;;;;5057303;28;20520;-80
2020/12/05 07:35:25;;;;;;;31.03;17.47;;;4.70;91.00;;;;;;5057100;28;20039;-79
2020/12/05 07:37:51;;;;;;;30.90;16.77;;;4.70;90.90;;;;;;5039352;28;20068;-80
2020/12/05 07:40:26;;;;;;;32.53;16.90;;;4.80;90.80;;;;;;5057641;28;20021;-80
2020/12/05 07:42:52;;;;;;;28.97;16.93;;;4.70;90.80;;;;;;5058147;28;20017;-80
2020/12/05 07:45:19;;;;;;;29.27;16.27;;;4.80;90.90;;;;;;5039764;28;20028;-80
2020/12/05 07:47:44;;;;;;;31.57;17.13;;;4.80;91.10;;;;;;5057732;28;20021;-79
2020/12/05 07:50:10;;;;;;;31.53;17.00;;;4.80;90.80;;;;;;5039682;28;20535;-80
2020/12/05 07:52:41;;;;;;;32.73;16.97;;;4.70;90.90;;;;;;5038744;28;20032;-80
2020/12/05 07:55:10;;;;;;;30.97;17.13;;;4.70;90.90;;;;;;5038342;28;20052;-80
2020/12/05 07:57:39;;;;;;;31.13;16.65;;;4.70;91.20;;;;;;5056447;28;20028;-80
2020/12/05 08:00:11;;;;;;;30.50;17.47;;;4.70;90.80;;;;;;5057011;28;20493;-80
2020/12/05 08:03:05;;;;;;;30.67;16.87;;;4.70;90.80;;;;;;5039638;28;20559;-80
2020/12/05 08:05:36;;;;;;;30.07;17.30;;;4.60;90.80;;;;;;5039349;28;20029;-81
2020/12/05 08:08:05;;;;;;;34.00;17.17;;;4.60;90.90;;;;;;5058711;28;20029;-79
2020/12/05 08:10:32;;;;;;;33.33;17.13;;;4.60;91.00;;;;;;5060153;28;20024;-79
2020/12/05 08:13:22;;;;;;;31.63;17.50;;;4.60;90.90;;;;;;5043635;28;20088;-80
2020/12/05 08:15:52;;;;;;;;;;;4.60;90.80;;;;;;5064807;28;20017;-80
2020/12/05 08:18:20;;;;;;;33.90;18.23;;;4.60;90.80;;;;;;5041903;28;19905;-80
2020/12/05 08:20:47;;;;;;;33.70;17.23;;;4.60;90.90;;;;;;5056144;28;20036;-80
2020/12/05 08:23:20;;;;;;;33.03;17.97;;;4.60;90.90;;;;;;5056505;28;20031;-80
2020/12/05 08:25:48;;;;;;;34.73;18.97;;;4.60;90.80;;;;;;5056553;28;20103;-80
2020/12/05 08:28:15;;;;;;;31.70;17.87;;;4.60;90.90;;;;;;5056843;28;20048;-80
2020/12/05 08:30:41;;;;;;;29.67;17.30;;;4.60;90.90;;;;;;5055919;28;20033;-79
2020/12/05 08:33:06;;;;;;;30.47;17.27;;;4.60;90.90;;;;;;5038293;28;20064;-79
2020/12/05 08:35:33;;;;;;;31.00;17.03;;;4.60;90.90;;;;;;5056088;28;20045;-80
2020/12/05 08:38:02;;;;;;;32.03;16.57;;;4.60;90.90;;;;;;5056450;28;20047;-80
2020/12/05 08:40:29;;;;;;;33.72;17.23;;;4.70;91.00;;;;;;5055429;28;20059;-80
2020/12/05 08:42:54;;;;;;;30.60;16.77;;;4.60;90.90;;;;;;5038071;28;20518;-80
2020/12/05 08:45:21;;;;;;;34.67;17.50;;;4.70;91.00;;;;;;5039241;28;20025;-80
2020/12/05 08:47:51;;;;;;;32.17;17.37;;;4.70;90.80;;;;;;5037929;28;20481;-80
2020/12/05 08:50:23;;;;;;;;;;;4.70;90.80;;;;;;5037487;28;20028;-80
2020/12/05 08:52:53;;;;;;;30.43;15.27;;;4.70;90.90;;;;;;5038022;28;19911;-80
2020/12/05 08:55:23;;;;;;;29.13;15.47;;;4.80;90.80;;;;;;5055283;28;20116;-81
2020/12/05 08:57:59;;;;;;;27.10;15.13;;;4.80;90.80;;;;;;5038288;28;20058;-81
2020/12/05 09:00:26;;;;;;;27.40;15.47;;;4.90;90.80;;;;;;5054416;28;20496;-79
2020/12/05 09:02:52;;;;;;;27.47;15.27;;;4.80;90.80;;;;;;5055018;28;20100;-80
2020/12/05 09:05:18;;;;;;;30.30;16.47;;;4.80;91.10;;;;;;5054914;28;20060;-80
2020/12/05 09:08:00;;;;;;;27.53;16.07;;;4.80;90.80;;;;;;5057417;28;20129;-79
2020/12/05 09:10:27;;;;;;;30.20;16.50;;;4.80;90.80;;;;;;5057223;28;20457;-79
2020/12/05 09:13:03;;;;;;;28.17;16.07;;;4.90;90.90;;;;;;5040934;28;20028;-80
2020/12/05 09:15:29;;;;;;;31.10;16.60;;;5.00;90.80;;;;;;5055421;28;20059;-80
2020/12/05 09:17:58;;;;;;;27.80;15.53;;;5.00;90.80;;;;;;5055909;28;20478;-80
2020/12/05 09:20:24;;;;;;;25.70;14.90;;;5.00;90.80;;;;;;5037084;28;20032;-80
2020/12/05 09:22:59;;;;;;;24.30;14.70;;;5.00;90.90;;;;;;5039650;28;20045;-80
2020/12/05 09:25:34;;;;;;;24.80;14.50;;;5.10;90.60;;;;;;5055889;28;20051;-80
2020/12/05 09:28:01;;;;;;;23.50;14.50;;;5.10;90.60;;;;;;5038670;28;20029;-80
2020/12/05 09:30:28;;;;;;;26.67;14.53;;;5.20;91.00;;;;;;5037270;28;20075;-80
2020/12/05 09:32:54;;;;;;;25.30;14.83;;;5.20;90.80;;;;;;5055586;28;20036;-79
2020/12/05 09:35:22;;;;;;;25.20;14.20;;;5.20;90.70;;;;;;5055486;28;20033;-80
2020/12/05 09:37:49;;;;;;;23.53;14.60;;;5.20;90.70;;;;;;5038238;28;20036;-80
2020/12/05 09:40:17;;;;;;;24.03;14.37;;;5.30;90.80;;;;;;5037132;28;20124;-80
2020/12/05 09:42:44;;;;;;;24.53;13.30;;;5.30;90.50;;;;;;5055909;28;20021;-79
2020/12/05 09:45:11;;;;;;;23.90;13.07;;;5.40;90.40;;;;;;5055406;28;20090;-80
2020/12/05 09:47:38;;;;;;;20.33;11.53;;;5.40;90.20;;;;;;5037707;28;20397;-80
2020/12/05 09:50:05;;;;;;;21.77;12.23;;;5.50;90.10;;;;;;5053977;28;20097;-79
2020/12/05 09:52:31;;;;;;;20.23;12.10;;;5.50;90.00;;;;;;5055191;28;20496;-80
2020/12/05 09:54:56;;;;;;;21.20;10.80;;;5.50;89.80;;;;;;5037426;28;20375;-80
2020/12/05 09:57:23;;;;;;;18.67;10.60;;;5.50;89.00;;;;;;5037784;28;20031;-80
2020/12/05 09:59:48;;;;;;;19.23;10.90;;;5.60;88.30;;;;;;5054584;28;20035;-79
2020/12/05 10:02:14;;;;;;;14.57;9.33;;;5.60;87.80;;;;;;5037449;28;20052;-80
2020/12/05 10:04:39;;;;;;;17.53;10.07;;;5.70;87.40;;;;;;5055042;28;20564;-80
2020/12/05 10:07:06;;;;;;;14.53;9.10;;;5.70;86.90;;;;;;5055547;28;20039;-80
2020/12/05 10:09:32;;;;;;;15.30;8.87;;;5.70;86.60;;;;;;5036800;28;20021;-80
2020/12/05 10:11:58;;;;;;;17.20;8.83;;;5.70;85.90;;;;;;5054852;28;20040;-80
2020/12/05 10:14:23;;;;;;;12.23;7.60;;;5.70;85.80;;;;;;5054706;28;20036;-80
2020/12/05 10:16:49;;;;;;;13.10;7.40;;;5.80;85.20;;;;;;5037290;28;20059;-80
2020/12/05 10:19:15;;;;;;;12.43;7.17;;;5.80;85.10;;;;;;5054145;28;20059;-80
2020/12/05 10:21:45;;;;;;;11.87;6.97;;;5.80;84.50;;;;;;5036633;28;20033;-80
2020/12/05 10:24:11;;;;;;;13.10;6.90;;;5.90;84.60;;;;;;5036828;28;20040;-80
2020/12/05 10:26:36;;;;;;;12.13;6.43;;;5.90;84.70;;;;;;5054599;28;20389;-80
2020/12/05 10:29:02;;;;;;;11.43;6.80;;;5.90;85.20;;;;;;5057874;28;20489;-80
2020/12/05 10:31:27;;;;;;;10.97;6.00;;;5.90;83.70;;;;;;5040107;28;20037;-80
2020/12/05 10:33:53;;;;;;;10.87;6.40;;;6.00;83.60;;;;;;5040684;28;20032;-80
2020/12/05 10:36:19;;;;;;;12.73;6.33;;;6.00;83.50;;;;;;5058865;28;20021;-80
2020/12/05 10:38:45;;;;;;;10.67;5.50;;;6.00;83.40;;;;;;5058499;28;20025;-78
2020/12/05 10:41:12;;;;;;;10.77;6.30;;;6.10;83.00;;;;;;5058250;28;20242;-80
2020/12/05 10:43:38;;;;;;;10.03;6.00;;;6.00;82.30;;;;;;5058434;28;20039;-81
2020/12/05 10:46:04;;;;;;;9.87;5.17;;;6.10;81.90;;;;;;5041169;28;20029;-81
2020/12/05 10:48:30;;;;;;;7.33;3.87;;;6.10;81.70;;;;;;5058605;28;20035;-80
2020/12/05 10:50:59;;;;;;;5.60;3.20;;;6.10;79.60;;;;;;5040126;28;20031;-80
2020/12/05 10:53:25;;;;;;;6.17;3.53;;;6.20;78.90;;;;;;5058080;28;20025;-80
2020/12/05 10:55:52;;;;;;;6.67;2.60;;;6.20;78.80;;;;;;5058063;28;20025;-80
2020/12/05 10:58:18;;;;;;;4.03;1.63;;;6.20;77.50;;;;;;5059673;28;20025;-80
2020/12/05 11:00:43;;;;;;;3.43;1.90;;;6.20;75.10;;;;;;5040833;28;20375;-81
2020/12/05 11:03:09;;;;;;;3.10;1.70;;;6.20;73.00;;;;;;5058021;28;20199;-80
2020/12/05 11:05:34;;;;;;;4.90;1.80;;;6.20;73.20;;;;;;5040641;28;20170;-80
2020/12/05 11:08:00;;;;;;;5.10;2.07;;;6.20;74.10;;;;;;5058207;28;20445;-81
2020/12/05 11:10:25;;;;;;;4.10;1.90;;;6.20;74.50;;;;;;5058358;28;20029;-80
2020/12/05 11:12:51;;;;;;;5.70;2.20;;;6.30;74.70;;;;;;5058002;28;20048;-81
2020/12/05 11:15:17;;;;;;;5.63;1.70;;;6.20;75.00;;;;;;5039811;28;20086;-80
2020/12/05 11:17:42;;;;;;;2.90;1.90;;;6.30;74.30;;;;;;5057342;28;20033;-80
2020/12/05 11:20:08;;;;;;;4.10;1.53;;;6.30;74.20;;;;;;5057308;28;20504;-81
2020/12/05 11:22:33;;;;;;;2.93;1.60;;;6.30;74.30;;;;;;5058772;28;20013;-80
2020/12/05 11:24:59;;;;;;;4.27;1.90;;;6.20;73.80;;;;;;5058011;28;20115;-80
2020/12/05 11:27:24;;;;;;;4.27;1.87;;;6.30;74.10;;;;;;5057867;28;20025;-80
2020/12/05 11:29:51;;;;;;;4.70;2.10;;;6.30;74.10;;;;;;5056976;28;20025;-80
2020/12/05 11:32:17;;;;;;;4.83;2.20;;;6.20;73.90;;;;;;5040870;22;20541;-87
2020/12/05 11:34:44;;;;;;;4.53;2.03;;;6.20;73.90;;;;;;5013824;28;20141;-87
2020/12/05 11:37:10;;;;;;;4.43;2.00;;;6.30;73.90;;;;;;5013912;28;20029;-87
2020/12/05 11:39:36;;;;;;;4.93;2.17;;;6.30;74.30;;;;;;5012439;28;20026;-87
2020/12/05 11:42:01;;;;;;;8.00;4.60;;;6.30;74.30;;;;;;5014962;28;20110;-86
2020/12/05 11:44:27;;;;;;;4.23;2.13;;;6.30;73.40;;;;;;5015227;28;20025;-86
2020/12/05 11:47:16;;;;;;;3.07;1.90;;;6.30;73.20;;;;;;5013620;28;20405;-87
2020/12/05 11:49:42;;;;;;;3.90;2.10;;;6.40;73.40;;;;;;5003205;28;20104;-86
2020/12/05 11:52:08;;;;;;;4.63;2.20;;;6.30;73.50;;;;;;5013585;28;20394;-86
2020/12/05 11:54:59;;;;;;;2.90;1.47;;;6.40;73.60;;;;;;5014821;28;20026;-86
2020/12/05 11:58:19;;;;;;;3.27;1.77;;;6.40;72.60;;;;;;5014337;28;20422;-85
2020/12/05 12:00:45;;;;;;;4.13;1.57;;;6.40;72.60;;;;;;5015702;28;20037;-85
2020/12/05 12:03:55;;;;;;;4.70;1.43;;;6.40;70.70;;;;;;5015421;28;20029;-85
2020/12/05 12:06:20;;;;;;;3.37;1.50;;;6.40;70.60;;;;;;5016143;28;20022;-88
2020/12/05 12:08:47;;;;;;;4.30;1.47;;;6.50;70.30;;;;;;5013462;28;20052;-85
2020/12/05 12:11:21;;;;;;;3.20;1.40;;;6.40;70.50;;;;;;5013262;28;20018;-86
2020/12/05 12:13:47;;;;;;;2.90;1.27;;;6.50;69.80;;;;;;5013140;28;20026;-86
2020/12/05 12:16:14;;;;;;;3.33;1.17;;;6.50;69.60;;;;;;5015164;28;20033;-85
2020/12/05 12:18:40;;;;;;;2.90;1.53;;;6.50;69.80;;;;;;5013868;28;20022;-86
2020/12/05 12:21:06;;;;;;;3.60;1.10;;;6.50;69.40;;;;;;5013260;28;20437;-85
2020/12/05 12:23:31;;;;;;;3.50;1.37;;;6.50;69.80;;;;;;5013137;28;20490;-86
2020/12/05 12:25:58;;;;;;;2.03;1.20;;;6.50;70.30;;;;;;5012558;28;20179;-87
2020/12/05 12:28:24;;;;;;;3.33;1.37;;;6.50;69.20;;;;;;5012855;28;20022;-87
2020/12/05 12:30:51;;;;;;;4.70;1.67;;;6.50;68.00;;;;;;5011913;28;20026;-87
2020/12/05 12:33:16;;;;;;;2.67;1.13;;;6.50;68.60;;;;;;5012522;28;20029;-86
2020/12/05 12:35:44;;;;;;;2.50;1.20;;;6.50;68.70;;;;;;5012588;28;20500;-86
2020/12/05 12:38:10;;;;;;;4.03;1.20;;;6.50;68.10;;;;;;5012631;28;20026;-85
2020/12/05 12:40:36;;;;;;;2.57;1.20;;;6.50;67.70;;;;;;5012238;28;20121;-86
2020/12/05 12:43:02;;;;;;;2.07;1.27;;;6.50;68.10;;;;;;5012305;28;20057;-86
2020/12/05 12:45:29;;;;;;;2.57;1.27;;;6.50;68.00;;;;;;5012420;28;20037;-87
2020/12/05 12:50:33;;;;;;;3.07;1.10;;;6.50;67.60;;;;;;5013056;28;20025;-86
2020/12/05 12:52:59;;;;;;;3.00;1.20;;;6.60;67.60;;;;;;5013628;28;20076;-86
2020/12/05 12:55:25;;;;;;;2.87;1.20;;;6.60;67.00;;;;;;5012083;28;20068;-85
2020/12/05 12:57:52;;;;;;;4.57;1.40;;;6.60;67.20;;;;;;5011909;28;20033;-87
2020/12/05 13:00:18;;;;;;;4.03;1.07;;;6.60;67.00;;;;;;5011103;28;20026;-86
2020/12/05 13:02:43;;;;;;;4.77;1.27;;;6.60;66.60;;;;;;5011758;28;20083;-87
2020/12/05 13:05:09;;;;;;;4.67;1.40;;;6.60;66.70;;;;;;5011692;28;20033;-85
2020/12/05 13:07:35;;;;;;;3.50;1.20;;;6.60;66.30;;;;;;5011552;28;20053;-86
2020/12/05 13:10:01;;;;;;;1.87;0.90;;;6.60;66.60;;;;;;5010991;28;20032;-85
2020/12/05 13:12:26;;;;;;;3.67;1.30;;;6.60;66.60;;;;;;5011466;28;20029;-86
2020/12/05 13:14:52;;;;;;;2.40;0.90;;;6.60;65.90;;;;;;5013079;28;20025;-86
2020/12/05 13:17:18;;;;;;;4.10;1.27;;;6.60;65.60;;;;;;5011703;28;20480;-85
2020/12/05 13:23:20;;;;;;;2.90;1.13;;;6.60;65.70;;;;;;4971089;28;20094;-87
2020/12/05 13:26:29;;;;;;;2.80;1.03;;;6.60;65.50;;;;;;4939169;28;20105;-86